Time;durP1;ratioP1;P1;durP2;ratioP2;P2;SDS_P1;SDS_P2;PMS_P1;PMS_P2;Temp;Humidity;BMP_temperature;BMP_pressure;BME280_temperature;BME280_humidity;BME280_pressure;Samples;Min_cycle;Max_cycle;Signal;HPM_P1;HPM_P2
2021/09/24 00:00:53;;;;;;;2.17;0.55;;;;;;;15.13;89.44;100511.47;4986812;28;20046;-63
2021/09/24 00:03:19;;;;;;;5.35;0.55;;;;;;;15.08;89.77;100501.78;4993969;28;20058;-62
2021/09/24 00:05:45;;;;;;;10.68;0.93;;;;;;;14.99;89.78;100506.06;4995042;28;20552;-62
2021/09/24 00:08:11;;;;;;;8.10;0.80;;;;;;;14.94;90.15;100501.03;4994070;28;20121;-62
2021/09/24 00:10:37;;;;;;;5.03;0.70;;;;;;;14.92;90.41;100492.50;4992349;28;20113;-62
2021/09/24 00:13:02;;;;;;;6.65;0.75;;;;;;;14.93;89.61;100488.63;4984349;28;20580;-62
2021/09/24 00:15:28;;;;;;;3.92;0.70;;;;;;;14.87;90.03;100490.16;4992106;28;20038;-63
2021/09/24 00:17:53;;;;;;;11.50;1.00;;;;;;;14.74;90.19;100489.00;4992496;28;20406;-62
2021/09/24 00:20:19;;;;;;;6.90;0.60;;;;;;;14.72;90.22;100478.56;4986512;28;20030;-62
2021/09/24 00:22:44;;;;;;;4.47;0.63;;;;;;;14.68;90.38;100496.75;5003141;28;20025;-62
2021/09/24 00:25:10;;;;;;;2.83;0.80;;;;;;;14.66;90.48;100488.22;5001437;28;20030;-62
2021/09/24 00:27:36;;;;;;;9.40;0.60;;;;;;;14.58;90.83;100491.31;4996657;28;20554;-62
2021/09/24 00:30:01;;;;;;;3.38;1.10;;;;;;;14.54;90.98;100488.59;4992131;28;20189;-63
2021/09/24 00:32:27;;;;;;;3.03;0.75;;;;;;;14.48;91.39;100493.63;4991671;28;20402;-62
2021/09/24 00:34:52;;;;;;;6.22;1.23;;;;;;;14.43;91.92;100501.34;4986652;28;20046;-63
2021/09/24 00:37:18;;;;;;;5.03;0.88;;;;;;;14.42;92.30;100487.03;4992471;28;20045;-62
2021/09/24 00:39:43;;;;;;;10.85;1.40;;;;;;;14.40;92.10;100502.13;4993285;28;20093;-63
2021/09/24 00:42:09;;;;;;;9.48;0.57;;;;;;;14.44;92.02;100487.41;4996880;28;20042;-62
2021/09/24 00:44:47;;;;;;;2.58;1.05;;;;;;;14.33;92.58;100497.47;4991086;28;20040;-62
2021/09/24 00:47:17;;;;;;;5.25;0.88;;;;;;;14.33;92.74;100502.88;4993031;28;20046;-63
2021/09/24 00:49:43;;;;;;;3.50;0.80;;;;;;;14.34;92.88;100499.00;4990476;28;20042;-62
2021/09/24 00:52:09;;;;;;;1.13;0.45;;;;;;;14.34;93.08;100495.53;4994289;28;20046;-62
2021/09/24 00:54:34;;;;;;;4.75;0.60;;;;;;;14.35;92.72;100499.78;4992217;28;20462;-62
2021/09/24 00:57:01;;;;;;;5.07;1.15;;;;;;;14.30;93.09;100509.06;4988892;28;20383;-62
2021/09/24 00:59:27;;;;;;;17.75;1.02;;;;;;;14.31;92.84;100505.19;4992686;28;20402;-62
2021/09/24 01:01:53;;;;;;;3.20;0.68;;;;;;;14.30;92.84;100502.88;4994657;28;20149;-62
2021/09/24 01:04:19;;;;;;;7.25;0.98;;;;;;;14.22;93.44;100514.81;4991793;28;20548;-60
2021/09/24 01:06:44;;;;;;;5.68;0.90;;;;;;;14.18;93.41;100511.31;4992056;28;20014;-62
2021/09/24 01:09:10;;;;;;;2.38;0.70;;;;;;;14.12;93.76;100508.22;5005111;28;20435;-62
2021/09/24 01:11:38;;;;;;;8.27;0.80;;;;;;;14.20;93.26;100515.22;4989625;28;20554;-63
2021/09/24 01:14:05;;;;;;;7.32;0.90;;;;;;;14.13;93.80;100515.16;4997316;28;20120;-62
2021/09/24 01:16:31;;;;;;;8.57;1.02;;;;;;;14.12;93.59;100521.75;4978084;28;20018;-62
2021/09/24 01:18:57;;;;;;;6.80;0.68;;;;;;;14.10;94.40;100521.34;4991299;28;20088;-63
2021/09/24 01:21:22;;;;;;;3.08;0.55;;;;;;;14.17;94.03;100513.25;4989531;28;20073;-62
2021/09/24 01:23:48;;;;;;;2.38;0.68;;;;;;;14.15;94.11;100522.94;4991472;28;20034;-62
2021/09/24 01:26:14;;;;;;;5.13;0.77;;;;;;;14.22;93.60;100523.72;4980886;28;20057;-63
2021/09/24 01:28:40;;;;;;;4.88;1.00;;;;;;;14.22;93.83;100523.72;4990664;28;20042;-62
2021/09/24 01:31:06;;;;;;;6.45;0.73;;;;;;;14.21;94.23;100513.25;4988724;28;20084;-60
2021/09/24 01:33:31;;;;;;;4.65;1.00;;;;;;;14.15;94.11;100510.16;4994799;28;20027;-62
2021/09/24 01:35:58;;;;;;;8.35;0.88;;;;;;;14.17;93.96;100513.25;4991589;28;20023;-62
2021/09/24 01:38:23;;;;;;;6.13;1.45;;;;;;;14.20;94.23;100511.72;4985807;28;20388;-63
2021/09/24 01:40:49;;;;;;;3.63;1.08;;;;;;;14.08;94.59;100517.47;4986704;28;20049;-63
2021/09/24 01:43:15;;;;;;;5.75;1.25;;;;;;;14.05;95.03;100512.81;4989347;28;20126;-61
2021/09/24 01:45:40;;;;;;;2.38;0.60;;;;;;;14.07;95.35;100510.53;4991314;28;20018;-61
2021/09/24 01:48:06;;;;;;;8.80;1.42;;;;;;;14.02;95.20;100511.66;4991720;28;20074;-62
2021/09/24 01:50:31;;;;;;;2.50;0.80;;;;;;;14.06;95.43;100517.06;5000855;28;20092;-63
2021/09/24 01:52:57;;;;;;;3.90;0.68;;;;;;;14.10;94.98;100515.94;4979037;28;20501;-63
2021/09/24 01:55:22;;;;;;;4.65;1.85;;;;;;;14.07;94.60;100522.09;4988683;28;20479;-63
2021/09/24 01:57:48;;;;;;;8.25;0.85;;;;;;;14.09;94.65;100511.66;4981359;28;20029;-63
2021/09/24 02:00:14;;;;;;;4.30;0.93;;;;;;;14.10;94.76;100520.56;4989077;28;20089;-62
2021/09/24 02:02:39;;;;;;;7.03;0.88;;;;;;;14.08;95.09;100520.19;4989948;28;20526;-62
2021/09/24 02:05:06;;;;;;;6.80;1.02;;;;;;;14.07;95.30;100524.81;5000407;28;20120;-62
2021/09/24 02:07:31;;;;;;;6.95;0.70;;;;;;;14.03;95.07;100515.91;4994510;28;20058;-62
2021/09/24 02:09:56;;;;;;;2.20;0.70;;;;;;;14.05;95.31;100523.66;4990623;28;20081;-62
2021/09/24 02:12:22;;;;;;;6.55;0.63;;;;;;;14.01;95.29;100531.00;4990654;28;20038;-61
2021/09/24 02:14:47;;;;;;;7.93;0.77;;;;;;;13.87;95.82;100515.47;4975149;28;20578;-62
2021/09/24 02:17:13;;;;;;;9.75;1.20;;;;;;;13.88;95.63;100518.94;5003202;28;20166;-62
2021/09/24 02:19:39;;;;;;;2.78;0.68;;;;;;;13.90;96.32;100517.41;4988811;28;20491;-62
2021/09/24 02:22:04;;;;;;;5.13;1.30;;;;;;;13.88;96.13;100508.88;4994831;28;20074;-62
2021/09/24 02:24:30;;;;;;;3.97;1.08;;;;;;;13.89;96.25;100505.03;4978395;28;20062;-63
2021/09/24 02:26:56;;;;;;;7.68;1.00;;;;;;;13.89;96.13;100515.06;4994454;28;20047;-62
2021/09/24 02:29:21;;;;;;;6.75;1.08;;;;;;;13.86;95.83;100507.72;4992857;28;20053;-63
2021/09/24 02:31:47;;;;;;;6.53;0.75;;;;;;;13.84;95.80;100524.31;4969038;28;20489;-62
2021/09/24 02:34:12;;;;;;;5.85;1.33;;;;;;;13.78;95.85;100519.66;4995394;28;20478;-62
2021/09/24 02:36:38;;;;;;;12.05;0.90;;;;;;;13.82;95.80;100525.88;5005158;28;20106;-62
2021/09/24 02:39:05;;;;;;;10.40;2.28;;;;;;;13.76;95.87;100522.75;5002911;28;20026;-62
2021/09/24 02:41:31;;;;;;;9.63;0.80;;;;;;;13.71;96.32;100528.50;4990370;28;20035;-62
2021/09/24 02:43:56;;;;;;;4.57;0.57;;;;;;;13.65;96.99;100526.53;4992035;28;20026;-62
2021/09/24 02:46:22;;;;;;;8.20;0.88;;;;;;;13.70;96.19;100524.28;4991561;28;20034;-62
2021/09/24 02:48:48;;;;;;;7.28;0.90;;;;;;;13.72;96.32;100537.41;4994901;28;20022;-62
2021/09/24 02:51:14;;;;;;;2.85;0.77;;;;;;;13.63;96.65;100540.44;4993872;28;20085;-61
2021/09/24 02:53:39;;;;;;;7.10;0.70;;;;;;;13.65;97.18;100542.78;4994364;28;20045;-62
2021/09/24 02:56:05;;;;;;;5.45;0.63;;;;;;;13.62;97.17;100549.75;4989239;28;20038;-62
2021/09/24 02:58:30;;;;;;;5.40;1.17;;;;;;;13.62;96.67;100557.84;4994180;28;20081;-62
2021/09/24 03:00:56;;;;;;;5.30;1.08;;;;;;;13.65;96.19;100559.78;4991313;28;20038;-63
2021/09/24 03:03:21;;;;;;;2.55;0.90;;;;;;;13.64;96.54;100552.84;5001033;28;20538;-62
2021/09/24 03:05:47;;;;;;;6.25;0.57;;;;;;;13.61;97.22;100548.16;5014059;28;20084;-62
2021/09/24 03:08:12;;;;;;;7.10;0.80;;;;;;;13.56;97.02;100557.44;4997292;28;20038;-62
2021/09/24 03:10:38;;;;;;;2.72;0.63;;;;;;;13.61;96.33;100552.81;4993629;28;20046;-63
2021/09/24 03:13:03;;;;;;;8.40;0.90;;;;;;;13.56;96.42;100556.66;4993715;28;20039;-62
2021/09/24 03:15:29;;;;;;;4.65;0.90;;;;;;;13.57;96.47;100555.47;4994140;28;20451;-63
2021/09/24 03:17:55;;;;;;;3.00;1.13;;;;;;;13.50;97.09;100555.44;4987715;28;20038;-63
2021/09/24 03:20:21;;;;;;;7.15;1.13;;;;;;;13.53;97.19;100560.09;4991782;28;20030;-62
2021/09/24 03:22:46;;;;;;;4.97;0.80;;;;;;;13.50;97.42;100563.56;4994082;28;20034;-63
2021/09/24 03:25:12;;;;;;;2.08;0.55;;;;;;;13.53;97.01;100558.16;5000116;28;20034;-63
2021/09/24 03:27:38;;;;;;;6.63;1.23;;;;;;;13.51;96.86;100557.78;5009597;28;20026;-62
2021/09/24 03:30:06;;;;;;;7.28;1.27;;;;;;;13.44;98.02;100556.94;4993101;28;20049;-62
2021/09/24 03:32:32;;;;;;;10.00;1.05;;;;;;;13.41;97.55;100544.19;4994876;28;20041;-63
2021/09/24 03:34:59;;;;;;;4.22;0.75;;;;;;;13.40;97.83;100556.94;4989689;28;20038;-62
2021/09/24 03:37:25;;;;;;;4.85;0.80;;;;;;;13.43;97.87;100558.88;4993394;28;20039;-62
2021/09/24 03:39:50;;;;;;;8.63;1.70;;;;;;;13.35;98.10;100551.88;4993909;28;20038;-62
2021/09/24 03:42:15;;;;;;;4.60;0.85;;;;;;;13.38;97.98;100550.34;4993346;28;20491;-62
2021/09/24 03:44:41;;;;;;;8.23;0.63;;;;;;;13.38;98.09;100561.16;4976399;28;20146;-62
2021/09/24 03:47:07;;;;;;;6.63;1.13;;;;;;;13.40;98.47;100548.81;4993455;28;20482;-62
2021/09/24 03:49:32;;;;;;;9.30;0.70;;;;;;;13.39;98.17;100555.34;4972037;28;20035;-63
2021/09/24 03:52:00;;;;;;;9.40;1.00;;;;;;;13.45;98.01;100548.44;4988680;28;20041;-64
2021/09/24 03:54:26;;;;;;;3.40;0.70;;;;;;;13.38;97.89;100553.03;4993364;28;20030;-63
2021/09/24 03:56:51;;;;;;;8.38;0.90;;;;;;;13.35;98.54;100551.88;4992464;28;20040;-63
2021/09/24 03:59:17;;;;;;;9.65;1.00;;;;;;;13.34;98.68;100561.13;4975110;28;20046;-63
2021/09/24 04:01:42;;;;;;;5.97;0.63;;;;;;;13.36;98.16;100558.03;4993649;28;20089;-62
2021/09/24 04:04:08;;;;;;;6.50;1.33;;;;;;;13.28;98.01;100553.72;4995538;28;20038;-63
2021/09/24 04:06:33;;;;;;;5.05;0.82;;;;;;;13.31;98.07;100556.47;4969138;28;20040;-62
2021/09/24 04:08:59;;;;;;;2.70;0.47;;;;;;;13.38;97.97;100555.75;5003278;28;20065;-63
2021/09/24 04:11:24;;;;;;;7.05;0.80;;;;;;;13.26;98.46;100558.72;5005550;28;20038;-63
2021/09/24 04:13:50;;;;;;;6.30;0.93;;;;;;;13.19;99.39;100564.88;4997461;28;20519;-62
2021/09/24 04:16:15;;;;;;;4.57;1.15;;;;;;;13.18;99.22;100560.59;4991743;28;20063;-62
2021/09/24 04:18:41;;;;;;;3.83;0.70;;;;;;;13.23;99.07;100554.88;4993236;28;20121;-62
2021/09/24 04:21:07;;;;;;;4.75;0.77;;;;;;;13.30;98.78;100557.63;4992870;28;20061;-63
2021/09/24 04:23:33;;;;;;;10.52;1.00;;;;;;;13.31;98.58;100558.41;4983463;28;20068;-63
2021/09/24 04:25:58;;;;;;;2.72;0.60;;;;;;;13.28;99.10;100569.97;4992080;28;20026;-63
2021/09/24 04:28:24;;;;;;;2.05;0.55;;;;;;;13.23;99.34;100567.63;4985437;28;20057;-63
2021/09/24 04:30:50;;;;;;;5.57;0.57;;;;;;;13.26;99.40;100570.34;5000768;28;20056;-63
2021/09/24 04:33:16;;;;;;;3.88;1.15;;;;;;;13.26;99.12;100570.34;5005080;28;20030;-62
2021/09/24 04:35:41;;;;;;;7.10;0.80;;;;;;;13.30;98.57;100576.56;4996166;28;20438;-62
2021/09/24 04:38:06;;;;;;;7.05;0.68;;;;;;;13.29;98.64;100585.06;4985184;28;20031;-63
2021/09/24 04:40:32;;;;;;;3.58;0.73;;;;;;;13.29;98.84;100577.72;4981424;28;20026;-63
2021/09/24 04:42:58;;;;;;;4.75;1.17;;;;;;;13.30;99.13;100586.59;4991907;28;20125;-64
2021/09/24 04:45:23;;;;;;;4.68;0.65;;;;;;;13.23;99.29;100586.53;4990305;28;20145;-62
2021/09/24 04:47:49;;;;;;;10.20;0.90;;;;;;;13.25;98.94;100585.03;4992866;28;20062;-62
2021/09/24 04:50:15;;;;;;;2.38;0.60;;;;;;;13.26;99.46;100583.06;4988501;28;20180;-63
2021/09/24 04:52:40;;;;;;;3.75;0.90;;;;;;;13.28;99.51;100580.78;4985840;28;20041;-63
2021/09/24 04:55:07;;;;;;;3.65;0.52;;;;;;;13.28;99.71;100578.84;4985951;28;20492;-63
2021/09/24 04:57:33;;;;;;;7.78;1.33;;;;;;;13.22;99.78;100576.88;4999939;28;20111;-62
2021/09/24 04:59:58;;;;;;;4.25;0.57;;;;;;;13.19;99.56;100574.91;4992941;28;20512;-62
2021/09/24 05:02:24;;;;;;;5.55;0.70;;;;;;;13.20;99.93;100576.47;4979494;28;20026;-63
2021/09/24 05:04:50;;;;;;;5.20;0.70;;;;;;;13.08;100.00;100572.13;4993414;28;20026;-63
2021/09/24 05:07:15;;;;;;;3.60;0.63;;;;;;;13.15;100.00;100572.19;4988190;28;20169;-63
2021/09/24 05:09:40;;;;;;;5.47;0.98;;;;;;;13.17;99.92;100574.50;4979571;28;20026;-63
2021/09/24 05:12:06;;;;;;;2.20;0.43;;;;;;;13.19;100.00;100583.81;4976297;28;20042;-63
2021/09/24 05:14:32;;;;;;;3.03;0.70;;;;;;;13.22;100.00;100582.31;4984280;28;20030;-62
2021/09/24 05:16:57;;;;;;;5.63;0.75;;;;;;;13.22;100.00;100593.13;4991841;28;20026;-63
2021/09/24 05:19:23;;;;;;;4.75;0.63;;;;;;;13.21;100.00;100586.91;4991911;28;20129;-62
2021/09/24 05:21:48;;;;;;;5.95;0.88;;;;;;;13.20;100.00;100587.31;4985860;28;20466;-63
2021/09/24 05:24:14;;;;;;;4.75;0.88;;;;;;;13.14;100.00;100580.69;4991845;28;20038;-63
2021/09/24 05:26:39;;;;;;;7.68;1.13;;;;;;;13.21;100.00;100588.84;4989368;28;20045;-63
2021/09/24 05:29:06;;;;;;;4.43;0.70;;;;;;;13.20;100.00;100587.31;4989974;28;20565;-63
2021/09/24 05:31:32;;;;;;;2.17;0.95;;;;;;;13.18;100.00;100587.66;4981645;28;20178;-62
2021/09/24 05:33:58;;;;;;;7.85;0.98;;;;;;;13.15;100.00;100595.75;4981980;28;20066;-62
2021/09/24 05:36:24;;;;;;;1.38;0.77;;;;;;;13.19;100.00;100601.97;4988609;28;20062;-63
2021/09/24 05:38:49;;;;;;;3.55;0.63;;;;;;;13.26;100.00;100600.09;4991556;28;20062;-62
2021/09/24 05:41:15;;;;;;;4.32;0.80;;;;;;;13.28;100.00;100597.00;4985673;28;20045;-62
2021/09/24 05:43:40;;;;;;;5.18;1.13;;;;;;;13.28;100.00;100586.19;4991393;28;20030;-62
2021/09/24 05:46:06;;;;;;;5.55;0.65;;;;;;;13.32;100.00;100590.47;4991908;28;20046;-63
2021/09/24 05:48:32;;;;;;;2.58;0.90;;;;;;;13.38;100.00;100593.63;4984178;28;20057;-63
2021/09/24 05:50:58;;;;;;;5.18;0.70;;;;;;;13.40;100.00;100599.44;4991691;28;20039;-63
2021/09/24 05:53:24;;;;;;;4.03;0.70;;;;;;;13.49;100.00;100599.91;5003641;28;20076;-62
2021/09/24 05:55:49;;;;;;;2.72;0.60;;;;;;;13.38;100.00;100597.09;4988107;28;20387;-62
2021/09/24 05:58:15;;;;;;;4.30;1.50;;;;;;;13.47;100.00;100599.50;4999866;28;20030;-62
2021/09/24 06:00:41;;;;;;;1.77;0.65;;;;;;;13.41;100.00;100598.28;4993244;28;20295;-61
2021/09/24 06:03:07;;;;;;;3.15;1.52;;;;;;;13.49;100.00;100597.19;4998738;28;20076;-63
2021/09/24 06:05:33;;;;;;;2.17;0.65;;;;;;;13.53;100.00;100597.97;5009102;28;20033;-62
2021/09/24 06:07:59;;;;;;;4.30;0.80;;;;;;;13.59;100.00;100599.19;5000555;28;20172;-62
2021/09/24 06:10:24;;;;;;;5.30;0.98;;;;;;;13.62;100.00;100590.31;5009454;28;20125;-62
2021/09/24 06:12:50;;;;;;;1.63;0.80;;;;;;;13.58;100.00;100592.22;4976675;28;20026;-63
2021/09/24 06:15:18;;;;;;;6.15;0.85;;;;;;;13.59;100.00;100593.78;4997804;28;20042;-63
2021/09/24 06:17:43;;;;;;;1.65;0.70;;;;;;;13.70;100.00;100593.84;4992284;28;20295;-62
2021/09/24 06:20:10;;;;;;;7.10;1.77;;;;;;;13.72;100.00;100602.38;4974430;28;20487;-62
2021/09/24 06:22:35;;;;;;;7.45;0.73;;;;;;;13.83;100.00;100595.88;4989895;28;20438;-61
2021/09/24 06:25:01;;;;;;;5.13;1.08;;;;;;;13.90;100.00;100609.44;4989923;28;20117;-62
2021/09/24 06:27:27;;;;;;;1.00;0.52;;;;;;;13.96;100.00;100602.53;4992198;28;20791;-62
2021/09/24 06:29:56;;;;;;;10.45;0.90;;;;;;;14.01;100.00;100596.75;4985631;28;20046;-62
2021/09/24 06:32:22;;;;;;;4.28;1.08;;;;;;;13.98;100.00;100591.31;4990677;28;20039;-62
2021/09/24 06:34:47;;;;;;;3.85;0.70;;;;;;;13.97;100.00;100601.38;4991060;28;20049;-62
2021/09/24 06:37:14;;;;;;;9.82;1.20;;;;;;;14.07;100.00;100600.63;5019463;23;20073;-62
2021/09/24 06:39:40;;;;;;;4.47;0.98;;;;;;;14.07;100.00;100595.22;5033735;28;20036;-62
2021/09/24 06:42:06;;;;;;;5.97;0.70;;;;;;;14.13;100.00;100609.19;5018852;28;20113;-65
2021/09/24 06:44:32;;;;;;;4.78;0.60;;;;;;;14.20;100.00;100606.53;5028386;28;20056;-66
2021/09/24 06:46:57;;;;;;;6.13;0.75;;;;;;;14.25;100.00;100600.72;5034541;28;20073;-64
2021/09/24 06:49:24;;;;;;;9.18;0.90;;;;;;;14.28;100.00;100608.13;5029815;28;20056;-65
2021/09/24 06:51:52;;;;;;;4.28;0.98;;;;;;;14.32;100.00;100612.41;5025686;28;20073;-65
2021/09/24 06:54:18;;;;;;;3.05;0.52;;;;;;;14.35;100.00;100619.78;5029536;28;20029;-65
2021/09/24 06:56:44;;;;;;;8.32;0.80;;;;;;;14.44;100.00;100614.78;5031837;28;20053;-65
2021/09/24 06:59:10;;;;;;;4.82;0.82;;;;;;;14.38;100.00;100621.72;5029362;28;20053;-64
2021/09/24 07:01:35;;;;;;;3.08;0.75;;;;;;;14.45;100.00;100613.63;5028433;28;20032;-64
2021/09/24 07:04:02;;;;;;;1.52;0.70;;;;;;;14.40;100.00;100615.94;5020605;28;20041;-65
2021/09/24 07:06:27;;;;;;;3.85;0.88;;;;;;;14.45;100.00;100619.06;5040219;28;20393;-65
2021/09/24 07:08:53;;;;;;;6.38;0.60;;;;;;;14.43;100.00;100618.66;5034384;28;20022;-65
2021/09/24 07:11:19;;;;;;;4.03;0.85;;;;;;;14.53;100.00;100624.50;5021939;28;20441;-65
2021/09/24 07:13:44;;;;;;;7.25;1.00;;;;;;;14.56;100.00;100621.00;5028659;28;20025;-65
2021/09/24 07:16:09;;;;;;;3.25;1.30;;;;;;;14.55;100.00;100625.66;5038063;28;20430;-65
2021/09/24 07:18:35;;;;;;;6.60;1.00;;;;;;;14.56;100.00;100639.97;5029963;28;20079;-65
2021/09/24 07:21:01;;;;;;;2.70;0.90;;;;;;;14.56;100.00;100627.22;5019450;28;20046;-65
2021/09/24 07:23:26;;;;;;;4.63;0.75;;;;;;;14.59;100.00;100628.38;5032638;28;20048;-65
2021/09/24 07:25:52;;;;;;;2.83;1.42;;;;;;;14.55;100.00;100627.59;5033902;28;20037;-66
2021/09/24 07:28:18;;;;;;;3.42;0.90;;;;;;;14.55;100.00;100635.72;5032407;28;20037;-65
2021/09/24 07:30:43;;;;;;;4.20;1.10;;;;;;;14.55;100.00;100633.81;5015054;28;20394;-65
2021/09/24 07:33:09;;;;;;;2.70;0.80;;;;;;;14.58;100.00;100624.09;5029978;28;20021;-65
2021/09/24 07:35:35;;;;;;;6.72;1.60;;;;;;;14.60;100.00;100619.09;5034115;28;20036;-65
2021/09/24 07:38:02;;;;;;;3.95;1.60;;;;;;;14.63;100.00;100621.81;5042178;28;20072;-65
2021/09/24 07:40:28;;;;;;;5.05;2.20;;;;;;;14.69;100.00;100622.22;5032467;28;20045;-65
2021/09/24 07:42:54;;;;;;;3.55;1.48;;;;;;;14.78;100.00;100611.78;5028740;28;20140;-64
2021/09/24 07:45:21;;;;;;;5.07;1.52;;;;;;;14.84;100.00;100605.63;5035267;28;20029;-65
2021/09/24 07:47:46;;;;;;;7.18;1.30;;;;;;;14.90;100.00;100600.59;5037844;28;20036;-65
2021/09/24 07:50:13;;;;;;;5.43;1.45;;;;;;;14.91;100.00;100602.91;5032011;28;20029;-64
2021/09/24 07:52:39;;;;;;;3.22;1.45;;;;;;;14.90;100.00;100600.59;5039088;28;20112;-65
2021/09/24 07:55:05;;;;;;;3.50;0.90;;;;;;;14.96;100.00;100605.22;5032668;28;20124;-65
2021/09/24 07:57:31;;;;;;;4.30;1.27;;;;;;;14.97;100.00;100601.38;5028469;28;20033;-65
2021/09/24 07:59:56;;;;;;;5.22;1.35;;;;;;;15.00;100.00;100597.88;5032205;28;20505;-64
2021/09/24 08:02:22;;;;;;;10.48;1.45;;;;;;;15.07;100.00;100605.25;5035382;28;20387;-65
2021/09/24 08:04:47;;;;;;;5.00;1.50;;;;;;;15.10;100.00;100593.63;5036418;28;20092;-65
2021/09/24 08:07:13;;;;;;;3.03;1.02;;;;;;;15.04;100.00;100590.53;5031966;28;20454;-64
2021/09/24 08:09:39;;;;;;;3.58;1.23;;;;;;;15.11;100.00;100587.06;5032369;28;20025;-65
2021/09/24 08:12:04;;;;;;;9.40;1.30;;;;;;;15.19;100.00;100594.78;5030170;28;20382;-65
2021/09/24 08:14:30;;;;;;;3.75;1.20;;;;;;;15.21;100.00;100597.13;5029177;28;20043;-65
2021/09/24 08:16:55;;;;;;;5.72;1.48;;;;;;;15.22;100.00;100598.69;5037447;28;20021;-64
2021/09/24 08:19:21;;;;;;;5.50;1.25;;;;;;;15.27;100.00;100596.34;5029464;28;20041;-64
2021/09/24 08:21:46;;;;;;;6.45;1.30;;;;;;;15.32;100.00;100595.97;5032084;28;20402;-65
2021/09/24 08:24:12;;;;;;;4.30;1.20;;;;;;;15.45;100.00;100601.81;5026194;28;20037;-65
2021/09/24 08:26:37;;;;;;;4.68;1.30;;;;;;;15.56;100.00;100597.16;5043126;28;20039;-65
2021/09/24 08:29:03;;;;;;;2.72;1.17;;;;;;;15.60;100.00;100608.78;5006388;28;20095;-65
2021/09/24 08:31:29;;;;;;;4.25;1.35;;;;;;;15.71;100.00;100604.13;5043888;28;20098;-64
2021/09/24 08:33:57;;;;;;;2.45;1.27;;;;;;;15.81;100.00;100602.56;5033672;28;20385;-65
2021/09/24 08:36:23;;;;;;;5.97;1.98;;;;;;;15.88;100.00;100605.25;5032239;28;20143;-65
2021/09/24 08:38:48;;;;;;;3.90;1.20;;;;;;;15.98;100.00;100602.53;5020027;28;20136;-65
2021/09/24 08:41:14;;;;;;;1.65;1.05;;;;;;;16.07;100.00;100608.31;5031544;28;20047;-64
2021/09/24 08:43:40;;;;;;;6.07;1.70;;;;;;;16.12;100.00;100616.03;5028394;28;20037;-64
2021/09/24 08:46:06;;;;;;;4.30;1.60;;;;;;;16.16;100.00;100616.06;5034171;28;20041;-65
2021/09/24 08:48:34;;;;;;;2.92;1.35;;;;;;;16.23;100.00;100616.81;5033739;28;20456;-64
2021/09/24 08:51:00;;;;;;;3.90;1.30;;;;;;;16.27;100.00;100616.78;5032077;28;20112;-65
2021/09/24 08:53:26;;;;;;;7.93;1.60;;;;;;;16.27;100.00;100617.56;5038061;28;20044;-64
2021/09/24 08:55:52;;;;;;;3.47;1.25;;;;;;;16.23;100.00;100613.31;5031020;28;20037;-64
2021/09/24 08:58:19;;;;;;;3.70;1.38;;;;;;;16.30;100.00;100626.09;5027671;28;20068;-65
2021/09/24 09:00:45;;;;;;;4.70;1.85;;;;;;;16.36;100.00;100606.25;5038582;28;20496;-64
2021/09/24 09:03:20;;;;;;;3.08;1.30;;;;;;;16.36;100.00;100614.41;5029736;28;20117;-64
2021/09/24 09:05:54;;;;;;;2.60;1.20;;;;;;;16.38;100.00;100605.84;5030042;28;20033;-64
2021/09/24 09:08:27;;;;;;;1.45;1.08;;;;;;;16.42;100.00;100606.63;5030038;28;20696;-65
2021/09/24 09:10:57;;;;;;;2.85;1.35;;;;;;;16.41;100.00;100608.59;5030332;28;20110;-64
2021/09/24 09:13:28;;;;;;;8.25;1.50;;;;;;;16.51;100.00;100609.75;5027254;28;20048;-65
2021/09/24 09:16:03;;;;;;;4.10;1.05;;;;;;;16.57;100.00;100605.44;5042498;28;20505;-64
2021/09/24 09:18:31;;;;;;;5.15;1.08;;;;;;;16.59;100.00;100612.00;5019924;28;20026;-64
2021/09/24 09:20:59;;;;;;;4.15;1.33;;;;;;;16.59;100.00;100611.25;5028335;28;20109;-65
2021/09/24 09:23:25;;;;;;;4.13;1.15;;;;;;;16.52;100.00;100617.50;5032435;28;20143;-65
2021/09/24 09:25:55;;;;;;;2.20;1.13;;;;;;;16.55;100.00;100613.22;5031244;28;20059;-64
2021/09/24 09:28:59;;;;;;;5.60;1.00;;;;;;;16.54;100.00;100615.16;5029924;28;20048;-64
2021/09/24 09:31:28;;;;;;;2.40;0.63;;;;;;;16.49;100.00;100610.13;5023983;28;20091;-65
2021/09/24 09:34:00;;;;;;;3.05;1.00;;;;;;;16.51;100.00;100617.91;5030522;28;20041;-64
2021/09/24 09:36:29;;;;;;;4.80;1.20;;;;;;;16.47;100.00;100614.38;5030569;28;20044;-65
2021/09/24 09:38:55;;;;;;;3.55;1.00;;;;;;;16.49;100.00;100617.50;5024073;28;20721;-65
2021/09/24 09:41:22;;;;;;;1.02;0.77;;;;;;;16.53;100.00;100615.56;5030283;28;20045;-64
2021/09/24 09:43:54;;;;;;;1.75;1.17;;;;;;;16.55;100.00;100627.56;5023860;28;20103;-65
2021/09/24 09:46:24;;;;;;;4.22;1.20;;;;;;;16.57;100.00;100621.75;5039692;28;20047;-64
2021/09/24 09:49:00;;;;;;;2.03;1.13;;;;;;;16.60;100.00;100629.09;5027720;28;20060;-65
2021/09/24 09:51:26;;;;;;;4.68;1.00;;;;;;;16.64;100.00;100627.94;5036603;28;20041;-64
2021/09/24 09:53:51;;;;;;;5.30;1.08;;;;;;;16.62;100.00;100630.28;5033624;28;20026;-64
2021/09/24 09:56:18;;;;;;;2.17;1.15;;;;;;;16.64;100.00;100627.16;5029634;28;20124;-64
2021/09/24 09:58:45;;;;;;;2.80;1.33;;;;;;;16.71;100.00;100629.81;5030758;28;20087;-64
2021/09/24 10:01:14;;;;;;;2.80;1.77;;;;;;;16.76;100.00;100640.31;5021118;28;20037;-64
2021/09/24 10:03:51;;;;;;;4.10;1.73;;;;;;;16.75;100.00;100636.03;5037377;28;20037;-65
2021/09/24 10:06:22;;;;;;;4.05;1.60;;;;;;;16.81;100.00;100639.88;5029565;28;20113;-64
2021/09/24 10:08:56;;;;;;;3.42;1.30;;;;;;;16.80;100.00;100632.91;5027924;28;20103;-64
2021/09/24 10:11:33;;;;;;;5.63;1.40;;;;;;;16.86;100.00;100636.75;5033780;28;20044;-64
2021/09/24 10:14:13;;;;;;;3.80;1.45;;;;;;;16.89;100.00;100638.69;5036382;28;20033;-64
2021/09/24 10:16:42;;;;;;;3.30;1.15;;;;;;;16.86;100.00;100626.63;5028813;28;20572;-64
2021/09/24 10:19:08;;;;;;;5.45;1.42;;;;;;;16.85;100.00;100632.47;5016478;28;20037;-65
2021/09/24 10:21:35;;;;;;;5.03;1.77;;;;;;;16.89;100.00;100623.13;5036207;28;20052;-64
2021/09/24 10:24:00;;;;;;;2.55;1.38;;;;;;;16.89;100.00;100630.50;5030112;28;20072;-65
2021/09/24 10:26:38;;;;;;;3.05;1.20;;;;;;;16.91;100.00;100628.94;5029595;28;20378;-64
2021/09/24 10:29:14;;;;;;;3.38;1.40;;;;;;;16.95;100.00;100628.94;5026182;28;20115;-64
2021/09/24 10:31:48;;;;;;;4.18;1.40;;;;;;;16.95;100.00;100628.94;5036512;28;20041;-65
2021/09/24 10:34:27;;;;;;;3.92;1.75;;;;;;;16.93;100.00;100623.09;5021334;28;20729;-65
2021/09/24 10:36:55;;;;;;;2.45;1.33;;;;;;;16.90;100.00;100621.94;5037428;28;20065;-63
2021/09/24 10:39:29;;;;;;;6.72;1.48;;;;;;;16.98;100.00;100617.22;5030083;28;20033;-64
2021/09/24 10:42:38;;;;;;;2.45;1.30;;;;;;;16.90;100.00;100621.94;5027712;28;20041;-65
2021/09/24 10:45:07;;;;;;;2.38;1.23;;;;;;;16.90;100.00;100621.94;5024633;28;20044;-64
2021/09/24 10:47:47;;;;;;;1.67;1.30;;;;;;;16.94;100.00;100624.66;5019004;28;20042;-65
2021/09/24 10:50:36;;;;;;;6.07;1.02;;;;;;;16.96;100.00;100623.09;5015180;28;20084;-64
2021/09/24 10:53:08;;;;;;;1.30;1.00;;;;;;;16.98;100.00;100628.13;5040261;28;20397;-65
2021/09/24 10:55:35;;;;;;;2.33;1.60;;;;;;;16.95;100.00;100616.09;5033708;28;20064;-64
2021/09/24 10:58:01;;;;;;;4.20;1.20;;;;;;;16.96;100.00;100616.84;5026480;28;20033;-64
2021/09/24 11:00:29;;;;;;;3.70;1.10;;;;;;;17.01;100.00;100617.19;5027785;28;20038;-65
2021/09/24 11:03:12;;;;;;;4.07;1.30;;;;;;;16.98;100.00;100612.56;5032578;28;20401;-65
2021/09/24 11:05:55;;;;;;;4.68;1.23;;;;;;;17.00;100.00;100604.00;5027885;28;20033;-64
2021/09/24 11:11:20;;;;;;;2.92;1.38;;;;;;;17.01;100.00;100611.75;5031570;28;20041;-64
2021/09/24 11:13:51;;;;;;;1.88;1.10;;;;;;;17.11;100.00;100607.44;5032845;28;20120;-64
2021/09/24 11:16:22;;;;;;;;;;;;;;;17.06;100.00;100610.56;5032736;28;20038;-64
2021/09/24 11:19:01;;;;;;;5.30;1.25;;;;;;;17.07;100.00;100607.44;5032629;28;20527;-64
2021/09/24 11:21:32;;;;;;;6.57;1.10;;;;;;;17.12;100.00;100611.72;5026456;28;20414;-64
2021/09/24 11:24:02;;;;;;;;;;;;;;;17.11;100.00;100604.72;5025697;28;20038;-64